sensor_id;sensor_type;location;lat;lon;timestamp;P1;durP1;ratioP1;P2;durP2;ratioP2
54121;SDS011;40029;58.708;50.190;2023-12-20T00:00:46;2.83;;;1.70;;
54121;SDS011;40029;58.708;50.190;2023-12-20T00:03:17;3.28;;;1.83;;
54121;SDS011;40029;58.708;50.190;2023-12-20T00:06:06;4.30;;;2.20;;
54121;SDS011;40029;58.708;50.190;2023-12-20T00:08:38;2.22;;;1.27;;
54121;SDS011;40029;58.708;50.190;2023-12-20T00:11:10;2.28;;;1.35;;
54121;SDS011;40029;58.708;50.190;2023-12-20T00:13:59;2.60;;;1.35;;
54121;SDS011;40029;58.708;50.190;2023-12-20T00:16:48;2.33;;;1.70;;
54121;SDS011;40029;58.708;50.190;2023-12-20T00:19:20;1.90;;;1.38;;
54121;SDS011;40029;58.708;50.190;2023-12-20T00:21:51;1.35;;;0.90;;
54121;SDS011;40029;58.708;50.190;2023-12-20T00:24:22;1.65;;;1.13;;
54121;SDS011;40029;58.708;50.190;2023-12-20T00:26:53;2.38;;;1.48;;
54121;SDS011;40029;58.708;50.190;2023-12-20T00:29:25;1.65;;;1.27;;
54121;SDS011;40029;58.708;50.190;2023-12-20T00:32:14;1.80;;;1.50;;
54121;SDS011;40029;58.708;50.190;2023-12-20T00:34:45;2.28;;;1.30;;
54121;SDS011;40029;58.708;50.190;2023-12-20T00:37:17;2.22;;;1.40;;
54121;SDS011;40029;58.708;50.190;2023-12-20T00:39:48;2.65;;;1.52;;
54121;SDS011;40029;58.708;50.190;2023-12-20T00:42:19;2.20;;;1.30;;
54121;SDS011;40029;58.708;50.190;2023-12-20T00:44:50;2.38;;;1.38;;
54121;SDS011;40029;58.708;50.190;2023-12-20T00:47:40;1.80;;;1.48;;
54121;SDS011;40029;58.708;50.190;2023-12-20T00:50:30;1.73;;;1.30;;
54121;SDS011;40029;58.708;50.190;2023-12-20T00:53:01;2.72;;;1.15;;
54121;SDS011;40029;58.708;50.190;2023-12-20T00:55:32;1.52;;;1.10;;
54121;SDS011;40029;58.708;50.190;2023-12-20T00:58:03;3.60;;;1.65;;
54121;SDS011;40029;58.708;50.190;2023-12-20T01:00:34;2.67;;;1.73;;
54121;SDS011;40029;58.708;50.190;2023-12-20T01:03:05;1.33;;;0.90;;
54121;SDS011;40029;58.708;50.190;2023-12-20T01:05:56;3.50;;;1.35;;
54121;SDS011;40029;58.708;50.190;2023-12-20T01:08:27;5.65;;;2.22;;
54121;SDS011;40029;58.708;50.190;2023-12-20T01:10:58;2.83;;;1.60;;
54121;SDS011;40029;58.708;50.190;2023-12-20T01:13:47;4.32;;;2.17;;
54121;SDS011;40029;58.708;50.190;2023-12-20T01:16:18;5.97;;;3.25;;
54121;SDS011;40029;58.708;50.190;2023-12-20T01:18:49;3.70;;;2.05;;
54121;SDS011;40029;58.708;50.190;2023-12-20T01:21:21;1.85;;;1.40;;
54121;SDS011;40029;58.708;50.190;2023-12-20T01:23:52;2.65;;;1.13;;
54121;SDS011;40029;58.708;50.190;2023-12-20T01:26:23;1.55;;;0.98;;
54121;SDS011;40029;58.708;50.190;2023-12-20T01:28:54;1.65;;;1.00;;
54121;SDS011;40029;58.708;50.190;2023-12-20T01:31:26;3.75;;;1.00;;
54121;SDS011;40029;58.708;50.190;2023-12-20T01:33:57;1.73;;;1.20;;
54121;SDS011;40029;58.708;50.190;2023-12-20T01:36:47;2.10;;;0.90;;
54121;SDS011;40029;58.708;50.190;2023-12-20T01:39:37;2.95;;;1.20;;
54121;SDS011;40029;58.708;50.190;2023-12-20T01:42:08;1.95;;;1.17;;
54121;SDS011;40029;58.708;50.190;2023-12-20T01:44:40;1.40;;;1.02;;
54121;SDS011;40029;58.708;50.190;2023-12-20T01:47:11;2.45;;;1.30;;
54121;SDS011;40029;58.708;50.190;2023-12-20T01:49:43;2.63;;;1.80;;
54121;SDS011;40029;58.708;50.190;2023-12-20T01:52:14;1.75;;;1.13;;
54121;SDS011;40029;58.708;50.190;2023-12-20T01:54:46;1.70;;;1.17;;
54121;SDS011;40029;58.708;50.190;2023-12-20T01:57:18;2.78;;;1.30;;
54121;SDS011;40029;58.708;50.190;2023-12-20T01:59:50;3.97;;;1.42;;
54121;SDS011;40029;58.708;50.190;2023-12-20T02:02:21;1.95;;;1.20;;
54121;SDS011;40029;58.708;50.190;2023-12-20T02:04:52;4.53;;;1.98;;
54121;SDS011;40029;58.708;50.190;2023-12-20T02:07:24;3.67;;;1.75;;
54121;SDS011;40029;58.708;50.190;2023-12-20T02:09:55;5.30;;;2.10;;
54121;SDS011;40029;58.708;50.190;2023-12-20T02:12:44;7.57;;;2.17;;
54121;SDS011;40029;58.708;50.190;2023-12-20T02:15:15;3.63;;;1.77;;
54121;SDS011;40029;58.708;50.190;2023-12-20T02:17:48;4.38;;;2.30;;
54121;SDS011;40029;58.708;50.190;2023-12-20T02:20:39;9.95;;;2.88;;
54121;SDS011;40029;58.708;50.190;2023-12-20T02:23:10;5.50;;;2.67;;
54121;SDS011;40029;58.708;50.190;2023-12-20T02:26:00;13.98;;;3.75;;
54121;SDS011;40029;58.708;50.190;2023-12-20T02:28:32;14.27;;;3.47;;
54121;SDS011;40029;58.708;50.190;2023-12-20T02:31:03;13.85;;;4.85;;
54121;SDS011;40029;58.708;50.190;2023-12-20T02:33:34;14.27;;;4.85;;
54121;SDS011;40029;58.708;50.190;2023-12-20T02:36:06;18.55;;;5.13;;
54121;SDS011;40029;58.708;50.190;2023-12-20T02:38:37;17.10;;;5.65;;
54121;SDS011;40029;58.708;50.190;2023-12-20T02:41:08;18.80;;;5.93;;
54121;SDS011;40029;58.708;50.190;2023-12-20T02:43:39;15.30;;;5.68;;
54121;SDS011;40029;58.708;50.190;2023-12-20T02:46:11;14.70;;;4.90;;
54121;SDS011;40029;58.708;50.190;2023-12-20T02:48:42;17.63;;;4.43;;
54121;SDS011;40029;58.708;50.190;2023-12-20T02:51:14;9.15;;;3.85;;
54121;SDS011;40029;58.708;50.190;2023-12-20T02:53:45;8.73;;;3.97;;
54121;SDS011;40029;58.708;50.190;2023-12-20T02:56:16;6.30;;;2.40;;
54121;SDS011;40029;58.708;50.190;2023-12-20T02:58:48;5.70;;;2.58;;
54121;SDS011;40029;58.708;50.190;2023-12-20T03:01:19;7.22;;;4.20;;
54121;SDS011;40029;58.708;50.190;2023-12-20T03:03:50;6.60;;;3.67;;
54121;SDS011;40029;58.708;50.190;2023-12-20T03:06:21;6.82;;;3.45;;
54121;SDS011;40029;58.708;50.190;2023-12-20T03:08:53;4.13;;;2.20;;
54121;SDS011;40029;58.708;50.190;2023-12-20T03:11:26;2.67;;;1.38;;
54121;SDS011;40029;58.708;50.190;2023-12-20T03:13:58;3.53;;;1.42;;
54121;SDS011;40029;58.708;50.190;2023-12-20T03:16:29;1.45;;;0.90;;
54121;SDS011;40029;58.708;50.190;2023-12-20T03:19:01;1.70;;;1.20;;
54121;SDS011;40029;58.708;50.190;2023-12-20T03:21:33;6.50;;;2.60;;
54121;SDS011;40029;58.708;50.190;2023-12-20T03:24:04;5.18;;;3.17;;
54121;SDS011;40029;58.708;50.190;2023-12-20T03:26:35;8.20;;;3.28;;
54121;SDS011;40029;58.708;50.190;2023-12-20T03:29:06;2.88;;;1.40;;
54121;SDS011;40029;58.708;50.190;2023-12-20T03:31:38;2.22;;;1.40;;
54121;SDS011;40029;58.708;50.190;2023-12-20T03:34:09;2.15;;;1.45;;
54121;SDS011;40029;58.708;50.190;2023-12-20T03:36:41;7.93;;;4.00;;
54121;SDS011;40029;58.708;50.190;2023-12-20T03:39:12;5.13;;;1.75;;
54121;SDS011;40029;58.708;50.190;2023-12-20T03:41:43;2.88;;;1.55;;
54121;SDS011;40029;58.708;50.190;2023-12-20T03:44:14;10.07;;;5.35;;
54121;SDS011;40029;58.708;50.190;2023-12-20T03:46:46;3.72;;;2.00;;
54121;SDS011;40029;58.708;50.190;2023-12-20T03:49:17;3.70;;;1.65;;
54121;SDS011;40029;58.708;50.190;2023-12-20T03:51:48;2.22;;;1.40;;
54121;SDS011;40029;58.708;50.190;2023-12-20T03:54:19;15.65;;;6.03;;
54121;SDS011;40029;58.708;50.190;2023-12-20T03:56:50;13.35;;;5.18;;
54121;SDS011;40029;58.708;50.190;2023-12-20T03:59:21;19.40;;;6.32;;
54121;SDS011;40029;58.708;50.190;2023-12-20T04:01:53;18.35;;;5.50;;
54121;SDS011;40029;58.708;50.190;2023-12-20T04:04:24;11.30;;;3.95;;
54121;SDS011;40029;58.708;50.190;2023-12-20T04:06:55;9.40;;;3.25;;
54121;SDS011;40029;58.708;50.190;2023-12-20T04:09:45;7.32;;;3.20;;
54121;SDS011;40029;58.708;50.190;2023-12-20T04:12:16;5.47;;;2.40;;
54121;SDS011;40029;58.708;50.190;2023-12-20T04:14:47;6.80;;;4.22;;
54121;SDS011;40029;58.708;50.190;2023-12-20T04:17:18;12.90;;;4.90;;
54121;SDS011;40029;58.708;50.190;2023-12-20T04:19:51;5.35;;;2.70;;
54121;SDS011;40029;58.708;50.190;2023-12-20T04:22:22;5.05;;;2.80;;
54121;SDS011;40029;58.708;50.190;2023-12-20T04:24:53;3.83;;;2.08;;
54121;SDS011;40029;58.708;50.190;2023-12-20T04:27:25;3.95;;;1.33;;
54121;SDS011;40029;58.708;50.190;2023-12-20T04:30:15;3.22;;;1.85;;
54121;SDS011;40029;58.708;50.190;2023-12-20T04:32:46;3.03;;;1.95;;
54121;SDS011;40029;58.708;50.190;2023-12-20T04:35:17;24.02;;;4.70;;
54121;SDS011;40029;58.708;50.190;2023-12-20T04:37:48;24.67;;;5.13;;
54121;SDS011;40029;58.708;50.190;2023-12-20T04:40:20;41.78;;;8.98;;
54121;SDS011;40029;58.708;50.190;2023-12-20T04:42:51;17.10;;;4.85;;
54121;SDS011;40029;58.708;50.190;2023-12-20T04:45:22;63.35;;;10.80;;
54121;SDS011;40029;58.708;50.190;2023-12-20T04:47:55;113.05;;;22.83;;
54121;SDS011;40029;58.708;50.190;2023-12-20T04:50:26;36.90;;;7.90;;
54121;SDS011;40029;58.708;50.190;2023-12-20T04:52:57;60.50;;;11.48;;
54121;SDS011;40029;58.708;50.190;2023-12-20T04:55:47;75.60;;;13.70;;
54121;SDS011;40029;58.708;50.190;2023-12-20T04:58:19;63.85;;;11.75;;
54121;SDS011;40029;58.708;50.190;2023-12-20T05:00:50;28.20;;;7.80;;
54121;SDS011;40029;58.708;50.190;2023-12-20T05:03:21;31.92;;;9.57;;
54121;SDS011;40029;58.708;50.190;2023-12-20T05:05:52;22.58;;;6.82;;
54121;SDS011;40029;58.708;50.190;2023-12-20T05:08:23;33.03;;;8.90;;
54121;SDS011;40029;58.708;50.190;2023-12-20T05:10:55;55.47;;;14.38;;
54121;SDS011;40029;58.708;50.190;2023-12-20T05:13:27;62.55;;;14.93;;
54121;SDS011;40029;58.708;50.190;2023-12-20T05:15:58;61.55;;;18.85;;
54121;SDS011;40029;58.708;50.190;2023-12-20T05:18:29;32.22;;;7.97;;
54121;SDS011;40029;58.708;50.190;2023-12-20T05:21:00;44.90;;;9.68;;
54121;SDS011;40029;58.708;50.190;2023-12-20T05:23:31;52.80;;;12.05;;
54121;SDS011;40029;58.708;50.190;2023-12-20T05:26:02;44.50;;;12.27;;
54121;SDS011;40029;58.708;50.190;2023-12-20T05:28:34;21.35;;;7.72;;
54121;SDS011;40029;58.708;50.190;2023-12-20T05:31:05;13.68;;;4.90;;
54121;SDS011;40029;58.708;50.190;2023-12-20T05:33:37;45.60;;;12.65;;
54121;SDS011;40029;58.708;50.190;2023-12-20T05:36:08;72.15;;;19.30;;
54121;SDS011;40029;58.708;50.190;2023-12-20T05:38:42;91.22;;;21.45;;
54121;SDS011;40029;58.708;50.190;2023-12-20T05:41:13;55.13;;;14.48;;
54121;SDS011;40029;58.708;50.190;2023-12-20T05:43:44;28.08;;;9.57;;
54121;SDS011;40029;58.708;50.190;2023-12-20T05:46:15;80.90;;;22.20;;
54121;SDS011;40029;58.708;50.190;2023-12-20T05:48:46;64.57;;;15.95;;
54121;SDS011;40029;58.708;50.190;2023-12-20T05:51:17;28.55;;;10.95;;
54121;SDS011;40029;58.708;50.190;2023-12-20T05:53:49;30.35;;;11.50;;
54121;SDS011;40029;58.708;50.190;2023-12-20T05:56:20;27.00;;;9.43;;
54121;SDS011;40029;58.708;50.190;2023-12-20T05:58:51;19.77;;;8.07;;
54121;SDS011;40029;58.708;50.190;2023-12-20T06:01:24;10.93;;;5.30;;
54121;SDS011;40029;58.708;50.190;2023-12-20T06:03:55;8.65;;;4.93;;
54121;SDS011;40029;58.708;50.190;2023-12-20T06:06:26;11.25;;;4.13;;
54121;SDS011;40029;58.708;50.190;2023-12-20T06:08:57;8.38;;;3.33;;
54121;SDS011;40029;58.708;50.190;2023-12-20T06:11:29;16.50;;;6.95;;
54121;SDS011;40029;58.708;50.190;2023-12-20T06:14:00;12.50;;;5.85;;
54121;SDS011;40029;58.708;50.190;2023-12-20T06:16:31;26.35;;;11.40;;
54121;SDS011;40029;58.708;50.190;2023-12-20T06:19:02;26.52;;;12.55;;
54121;SDS011;40029;58.708;50.190;2023-12-20T06:21:34;23.98;;;10.57;;
54121;SDS011;40029;58.708;50.190;2023-12-20T06:24:05;16.75;;;5.75;;
54121;SDS011;40029;58.708;50.190;2023-12-20T06:26:36;16.33;;;6.65;;
54121;SDS011;40029;58.708;50.190;2023-12-20T06:29:26;12.75;;;4.85;;
54121;SDS011;40029;58.708;50.190;2023-12-20T06:31:57;23.20;;;7.25;;
54121;SDS011;40029;58.708;50.190;2023-12-20T06:34:46;30.83;;;11.45;;
54121;SDS011;40029;58.708;50.190;2023-12-20T06:37:17;29.88;;;11.38;;
54121;SDS011;40029;58.708;50.190;2023-12-20T06:39:49;12.57;;;6.28;;
54121;SDS011;40029;58.708;50.190;2023-12-20T06:42:20;13.57;;;6.78;;
54121;SDS011;40029;58.708;50.190;2023-12-20T06:44:51;7.85;;;4.47;;
54121;SDS011;40029;58.708;50.190;2023-12-20T06:47:22;14.45;;;5.40;;
54121;SDS011;40029;58.708;50.190;2023-12-20T06:49:54;8.82;;;3.42;;
54121;SDS011;40029;58.708;50.190;2023-12-20T06:52:25;5.63;;;3.58;;
54121;SDS011;40029;58.708;50.190;2023-12-20T06:54:56;4.85;;;2.53;;
54121;SDS011;40029;58.708;50.190;2023-12-20T06:57:27;6.60;;;3.92;;
54121;SDS011;40029;58.708;50.190;2023-12-20T07:00:17;6.00;;;2.63;;
54121;SDS011;40029;58.708;50.190;2023-12-20T07:02:50;4.85;;;2.50;;
54121;SDS011;40029;58.708;50.190;2023-12-20T07:05:21;5.32;;;2.83;;
54121;SDS011;40029;58.708;50.190;2023-12-20T07:07:53;2.45;;;2.10;;
54121;SDS011;40029;58.708;50.190;2023-12-20T07:10:24;6.60;;;3.10;;
54121;SDS011;40029;58.708;50.190;2023-12-20T07:12:55;7.10;;;3.42;;
54121;SDS011;40029;58.708;50.190;2023-12-20T07:15:26;7.40;;;3.45;;
54121;SDS011;40029;58.708;50.190;2023-12-20T07:18:00;7.13;;;2.90;;
54121;SDS011;40029;58.708;50.190;2023-12-20T07:20:31;9.27;;;3.60;;
54121;SDS011;40029;58.708;50.190;2023-12-20T07:23:03;7.28;;;3.38;;
54121;SDS011;40029;58.708;50.190;2023-12-20T07:25:34;16.10;;;5.22;;
54121;SDS011;40029;58.708;50.190;2023-12-20T07:28:05;10.85;;;3.72;;
54121;SDS011;40029;58.708;50.190;2023-12-20T07:30:36;19.58;;;6.88;;
54121;SDS011;40029;58.708;50.190;2023-12-20T07:33:08;10.63;;;4.40;;
54121;SDS011;40029;58.708;50.190;2023-12-20T07:35:40;19.90;;;6.82;;
54121;SDS011;40029;58.708;50.190;2023-12-20T07:38:11;16.23;;;6.82;;
54121;SDS011;40029;58.708;50.190;2023-12-20T07:40:42;11.07;;;5.25;;
54121;SDS011;40029;58.708;50.190;2023-12-20T07:43:14;7.95;;;3.13;;
54121;SDS011;40029;58.708;50.190;2023-12-20T07:45:45;9.25;;;2.90;;
54121;SDS011;40029;58.708;50.190;2023-12-20T07:48:16;5.57;;;2.97;;
54121;SDS011;40029;58.708;50.190;2023-12-20T07:50:47;5.85;;;2.97;;
54121;SDS011;40029;58.708;50.190;2023-12-20T07:53:18;5.40;;;2.70;;
54121;SDS011;40029;58.708;50.190;2023-12-20T07:55:49;7.13;;;2.53;;
54121;SDS011;40029;58.708;50.190;2023-12-20T07:58:23;7.38;;;3.53;;
54121;SDS011;40029;58.708;50.190;2023-12-20T08:00:54;8.00;;;3.05;;
54121;SDS011;40029;58.708;50.190;2023-12-20T08:03:25;3.88;;;2.22;;
54121;SDS011;40029;58.708;50.190;2023-12-20T08:05:56;3.17;;;2.17;;
54121;SDS011;40029;58.708;50.190;2023-12-20T08:08:30;3.83;;;2.00;;
54121;SDS011;40029;58.708;50.190;2023-12-20T08:11:01;4.75;;;2.08;;
54121;SDS011;40029;58.708;50.190;2023-12-20T08:13:51;3.65;;;1.85;;
54121;SDS011;40029;58.708;50.190;2023-12-20T08:16:40;5.03;;;2.30;;
54121;SDS011;40029;58.708;50.190;2023-12-20T08:19:11;10.35;;;3.88;;
54121;SDS011;40029;58.708;50.190;2023-12-20T08:21:43;7.95;;;3.40;;
54121;SDS011;40029;58.708;50.190;2023-12-20T08:24:14;6.97;;;3.17;;
54121;SDS011;40029;58.708;50.190;2023-12-20T08:26:46;5.05;;;2.30;;
54121;SDS011;40029;58.708;50.190;2023-12-20T08:29:17;4.18;;;2.33;;
54121;SDS011;40029;58.708;50.190;2023-12-20T08:31:52;7.75;;;2.78;;
54121;SDS011;40029;58.708;50.190;2023-12-20T08:34:24;4.82;;;1.80;;
54121;SDS011;40029;58.708;50.190;2023-12-20T08:36:56;3.90;;;1.50;;
54121;SDS011;40029;58.708;50.190;2023-12-20T08:39:27;6.10;;;2.80;;
54121;SDS011;40029;58.708;50.190;2023-12-20T08:41:58;4.25;;;1.40;;
54121;SDS011;40029;58.708;50.190;2023-12-20T08:44:29;7.38;;;2.70;;
54121;SDS011;40029;58.708;50.190;2023-12-20T08:47:01;4.68;;;1.60;;
54121;SDS011;40029;58.708;50.190;2023-12-20T08:49:33;2.60;;;1.63;;
54121;SDS011;40029;58.708;50.190;2023-12-20T08:52:04;4.03;;;1.90;;
54121;SDS011;40029;58.708;50.190;2023-12-20T08:54:36;5.38;;;1.70;;
54121;SDS011;40029;58.708;50.190;2023-12-20T08:57:07;5.22;;;1.48;;
54121;SDS011;40029;58.708;50.190;2023-12-20T08:59:38;5.68;;;2.38;;
54121;SDS011;40029;58.708;50.190;2023-12-20T09:02:09;6.45;;;2.60;;
54121;SDS011;40029;58.708;50.190;2023-12-20T09:04:40;3.88;;;1.80;;
54121;SDS011;40029;58.708;50.190;2023-12-20T09:07:22;9.13;;;2.95;;
54121;SDS011;40029;58.708;50.190;2023-12-20T09:09:57;14.52;;;5.57;;
54121;SDS011;40029;58.708;50.190;2023-12-20T09:12:47;12.00;;;4.68;;
54121;SDS011;40029;58.708;50.190;2023-12-20T09:15:24;9.90;;;4.15;;
54121;SDS011;40029;58.708;50.190;2023-12-20T09:17:56;10.48;;;3.60;;
54121;SDS011;40029;58.708;50.190;2023-12-20T09:20:27;14.75;;;5.47;;
54121;SDS011;40029;58.708;50.190;2023-12-20T09:22:59;13.50;;;6.10;;
54121;SDS011;40029;58.708;50.190;2023-12-20T09:25:30;11.18;;;4.22;;
54121;SDS011;40029;58.708;50.190;2023-12-20T09:28:02;12.07;;;5.55;;
54121;SDS011;40029;58.708;50.190;2023-12-20T09:30:34;5.97;;;2.72;;
54121;SDS011;40029;58.708;50.190;2023-12-20T09:33:08;11.25;;;4.68;;
54121;SDS011;40029;58.708;50.190;2023-12-20T09:35:58;6.60;;;2.97;;
54121;SDS011;40029;58.708;50.190;2023-12-20T09:38:29;6.25;;;2.15;;
54121;SDS011;40029;58.708;50.190;2023-12-20T09:41:00;5.28;;;2.63;;
54121;SDS011;40029;58.708;50.190;2023-12-20T09:43:35;8.27;;;3.42;;
54121;SDS011;40029;58.708;50.190;2023-12-20T09:46:08;7.70;;;2.88;;
54121;SDS011;40029;58.708;50.190;2023-12-20T09:48:44;4.20;;;2.17;;
54121;SDS011;40029;58.708;50.190;2023-12-20T09:51:15;3.00;;;1.42;;
54121;SDS011;40029;58.708;50.190;2023-12-20T09:53:47;5.40;;;1.77;;
54121;SDS011;40029;58.708;50.190;2023-12-20T09:56:19;3.65;;;2.00;;
54121;SDS011;40029;58.708;50.190;2023-12-20T09:58:50;6.28;;;2.55;;
54121;SDS011;40029;58.708;50.190;2023-12-20T10:01:22;5.93;;;2.47;;
54121;SDS011;40029;58.708;50.190;2023-12-20T10:03:54;7.57;;;3.05;;
54121;SDS011;40029;58.708;50.190;2023-12-20T10:06:26;4.65;;;2.13;;
54121;SDS011;40029;58.708;50.190;2023-12-20T10:09:00;4.25;;;2.53;;
54121;SDS011;40029;58.708;50.190;2023-12-20T10:11:32;11.07;;;4.22;;
54121;SDS011;40029;58.708;50.190;2023-12-20T10:14:07;13.50;;;4.70;;
54121;SDS011;40029;58.708;50.190;2023-12-20T10:16:41;2.70;;;1.37;;
54121;SDS011;40029;58.708;50.190;2023-12-20T10:19:15;9.10;;;3.10;;
54121;SDS011;40029;58.708;50.190;2023-12-20T10:21:48;7.57;;;2.78;;
54121;SDS011;40029;58.708;50.190;2023-12-20T10:24:19;3.33;;;1.67;;
54121;SDS011;40029;58.708;50.190;2023-12-20T10:27:01;3.20;;;1.77;;
54121;SDS011;40029;58.708;50.190;2023-12-20T10:29:53;3.40;;;0.95;;
54121;SDS011;40029;58.708;50.190;2023-12-20T10:32:25;1.08;;;0.65;;
54121;SDS011;40029;58.708;50.190;2023-12-20T10:35:16;1.08;;;0.75;;
54121;SDS011;40029;58.708;50.190;2023-12-20T10:38:06;2.88;;;1.42;;
54121;SDS011;40029;58.708;50.190;2023-12-20T10:40:37;2.80;;;0.80;;
54121;SDS011;40029;58.708;50.190;2023-12-20T10:43:08;3.28;;;0.90;;
54121;SDS011;40029;58.708;50.190;2023-12-20T10:45:41;4.53;;;1.70;;
54121;SDS011;40029;58.708;50.190;2023-12-20T10:48:14;4.70;;;2.22;;
54121;SDS011;40029;58.708;50.190;2023-12-20T10:50:47;3.20;;;1.48;;
54121;SDS011;40029;58.708;50.190;2023-12-20T10:53:20;4.38;;;1.10;;
54121;SDS011;40029;58.708;50.190;2023-12-20T10:55:52;3.72;;;1.10;;
54121;SDS011;40029;58.708;50.190;2023-12-20T10:58:29;1.85;;;0.90;;
54121;SDS011;40029;58.708;50.190;2023-12-20T11:01:03;2.83;;;0.93;;
54121;SDS011;40029;58.708;50.190;2023-12-20T11:03:35;1.13;;;0.82;;
54121;SDS011;40029;58.708;50.190;2023-12-20T11:06:56;5.60;;;2.83;;
54121;SDS011;40029;58.708;50.190;2023-12-20T11:12:16;5.32;;;2.17;;
54121;SDS011;40029;58.708;50.190;2023-12-20T11:15:06;3.33;;;1.58;;
54121;SDS011;40029;58.708;50.190;2023-12-20T11:17:38;3.53;;;1.35;;
54121;SDS011;40029;58.708;50.190;2023-12-20T11:20:11;1.80;;;1.00;;
54121;SDS011;40029;58.708;50.190;2023-12-20T11:22:52;2.92;;;1.52;;
54121;SDS011;40029;58.708;50.190;2023-12-20T11:25:51;2.78;;;1.20;;
54121;SDS011;40029;58.708;50.190;2023-12-20T11:28:24;5.35;;;2.05;;
54121;SDS011;40029;58.708;50.190;2023-12-20T11:30:56;1.67;;;1.02;;
54121;SDS011;40029;58.708;50.190;2023-12-20T11:33:31;1.70;;;0.80;;
54121;SDS011;40029;58.708;50.190;2023-12-20T11:36:12;2.00;;;1.10;;
54121;SDS011;40029;58.708;50.190;2023-12-20T11:38:57;2.15;;;1.00;;
54121;SDS011;40029;58.708;50.190;2023-12-20T11:41:48;1.40;;;0.98;;
54121;SDS011;40029;58.708;50.190;2023-12-20T11:44:39;2.25;;;1.00;;
54121;SDS011;40029;58.708;50.190;2023-12-20T11:47:13;5.68;;;1.45;;
54121;SDS011;40029;58.708;50.190;2023-12-20T11:49:47;6.63;;;2.65;;
54121;SDS011;40029;58.708;50.190;2023-12-20T11:52:19;3.38;;;1.92;;
54121;SDS011;40029;58.708;50.190;2023-12-20T11:54:50;5.43;;;2.60;;
54121;SDS011;40029;58.708;50.190;2023-12-20T11:57:21;4.43;;;1.80;;
54121;SDS011;40029;58.708;50.190;2023-12-20T11:59:53;4.10;;;1.92;;
54121;SDS011;40029;58.708;50.190;2023-12-20T12:02:24;7.18;;;2.00;;
54121;SDS011;40029;58.708;50.190;2023-12-20T12:04:55;2.63;;;1.00;;
54121;SDS011;40029;58.708;50.190;2023-12-20T12:07:27;3.78;;;1.20;;
54121;SDS011;40029;58.708;50.190;2023-12-20T12:09:58;6.32;;;2.42;;
54121;SDS011;40029;58.708;50.190;2023-12-20T12:12:29;5.05;;;2.33;;
54121;SDS011;40029;58.708;50.190;2023-12-20T12:15:01;7.18;;;1.98;;
54121;SDS011;40029;58.708;50.190;2023-12-20T12:17:35;2.50;;;1.35;;
54121;SDS011;40029;58.708;50.190;2023-12-20T12:20:07;2.60;;;1.55;;
54121;SDS011;40029;58.708;50.190;2023-12-20T12:22:40;2.33;;;1.33;;
54121;SDS011;40029;58.708;50.190;2023-12-20T12:25:12;4.00;;;1.55;;
54121;SDS011;40029;58.708;50.190;2023-12-20T12:28:03;4.88;;;1.60;;
54121;SDS011;40029;58.708;50.190;2023-12-20T12:30:34;2.20;;;1.02;;
54121;SDS011;40029;58.708;50.190;2023-12-20T12:33:06;2.33;;;1.30;;
54121;SDS011;40029;58.708;50.190;2023-12-20T12:35:37;3.78;;;1.92;;
54121;SDS011;40029;58.708;50.190;2023-12-20T12:38:08;2.10;;;1.25;;
54121;SDS011;40029;58.708;50.190;2023-12-20T12:40:40;2.92;;;1.92;;
54121;SDS011;40029;58.708;50.190;2023-12-20T12:43:32;2.70;;;1.38;;
54121;SDS011;40029;58.708;50.190;2023-12-20T12:46:03;6.18;;;1.85;;
54121;SDS011;40029;58.708;50.190;2023-12-20T12:48:35;3.20;;;1.40;;
54121;SDS011;40029;58.708;50.190;2023-12-20T12:51:06;4.95;;;1.98;;
54121;SDS011;40029;58.708;50.190;2023-12-20T12:53:43;1.65;;;1.30;;
54121;SDS011;40029;58.708;50.190;2023-12-20T12:56:14;2.50;;;1.25;;
54121;SDS011;40029;58.708;50.190;2023-12-20T12:58:46;2.20;;;0.90;;
54121;SDS011;40029;58.708;50.190;2023-12-20T13:01:17;4.03;;;1.98;;
54121;SDS011;40029;58.708;50.190;2023-12-20T13:03:48;10.40;;;4.25;;
54121;SDS011;40029;58.708;50.190;2023-12-20T13:06:20;20.15;;;5.80;;
54121;SDS011;40029;58.708;50.190;2023-12-20T13:08:51;29.48;;;7.40;;
54121;SDS011;40029;58.708;50.190;2023-12-20T13:11:22;27.05;;;7.78;;
54121;SDS011;40029;58.708;50.190;2023-12-20T13:13:53;7.70;;;3.22;;
54121;SDS011;40029;58.708;50.190;2023-12-20T13:16:24;10.40;;;4.15;;
54121;SDS011;40029;58.708;50.190;2023-12-20T13:18:56;15.30;;;5.53;;
54121;SDS011;40029;58.708;50.190;2023-12-20T13:21:45;5.32;;;2.97;;
54121;SDS011;40029;58.708;50.190;2023-12-20T13:24:17;4.47;;;1.40;;
54121;SDS011;40029;58.708;50.190;2023-12-20T13:26:49;3.22;;;1.58;;
54121;SDS011;40029;58.708;50.190;2023-12-20T13:29:21;2.53;;;1.70;;
54121;SDS011;40029;58.708;50.190;2023-12-20T13:31:52;1.25;;;0.80;;
54121;SDS011;40029;58.708;50.190;2023-12-20T13:34:42;1.58;;;1.00;;
54121;SDS011;40029;58.708;50.190;2023-12-20T13:37:13;3.13;;;1.80;;
54121;SDS011;40029;58.708;50.190;2023-12-20T13:39:44;2.38;;;1.00;;
54121;SDS011;40029;58.708;50.190;2023-12-20T13:42:16;1.60;;;0.90;;
54121;SDS011;40029;58.708;50.190;2023-12-20T13:44:48;1.08;;;0.82;;
54121;SDS011;40029;58.708;50.190;2023-12-20T13:47:19;2.70;;;1.15;;
54121;SDS011;40029;58.708;50.190;2023-12-20T13:49:50;28.02;;;9.52;;
54121;SDS011;40029;58.708;50.190;2023-12-20T13:52:21;15.30;;;6.45;;
54121;SDS011;40029;58.708;50.190;2023-12-20T13:54:52;11.00;;;6.20;;
54121;SDS011;40029;58.708;50.190;2023-12-20T13:57:24;2.42;;;1.52;;
54121;SDS011;40029;58.708;50.190;2023-12-20T13:59:55;1.00;;;0.70;;
54121;SDS011;40029;58.708;50.190;2023-12-20T14:02:28;1.35;;;0.60;;
54121;SDS011;40029;58.708;50.190;2023-12-20T14:04:59;1.92;;;1.23;;
54121;SDS011;40029;58.708;50.190;2023-12-20T14:07:30;3.45;;;1.58;;
54121;SDS011;40029;58.708;50.190;2023-12-20T14:10:02;2.55;;;1.52;;
54121;SDS011;40029;58.708;50.190;2023-12-20T14:12:35;4.85;;;2.33;;
54121;SDS011;40029;58.708;50.190;2023-12-20T14:15:27;7.28;;;3.45;;
54121;SDS011;40029;58.708;50.190;2023-12-20T14:17:58;5.22;;;2.15;;
54121;SDS011;40029;58.708;50.190;2023-12-20T14:20:48;10.90;;;4.70;;
54121;SDS011;40029;58.708;50.190;2023-12-20T14:23:21;6.28;;;3.00;;
54121;SDS011;40029;58.708;50.190;2023-12-20T14:25:53;6.32;;;2.28;;
54121;SDS011;40029;58.708;50.190;2023-12-20T14:28:26;6.47;;;2.95;;
54121;SDS011;40029;58.708;50.190;2023-12-20T14:30:57;4.15;;;1.45;;
54121;SDS011;40029;58.708;50.190;2023-12-20T14:33:29;4.32;;;1.73;;
54121;SDS011;40029;58.708;50.190;2023-12-20T14:36:00;5.20;;;2.58;;
54121;SDS011;40029;58.708;50.190;2023-12-20T14:38:31;9.65;;;3.67;;
54121;SDS011;40029;58.708;50.190;2023-12-20T14:41:03;10.50;;;3.88;;
54121;SDS011;40029;58.708;50.190;2023-12-20T14:43:36;17.02;;;6.32;;
54121;SDS011;40029;58.708;50.190;2023-12-20T14:46:08;26.65;;;8.63;;
54121;SDS011;40029;58.708;50.190;2023-12-20T14:48:39;10.18;;;5.60;;
54121;SDS011;40029;58.708;50.190;2023-12-20T14:51:10;6.25;;;2.95;;
54121;SDS011;40029;58.708;50.190;2023-12-20T14:53:43;7.28;;;3.88;;
54121;SDS011;40029;58.708;50.190;2023-12-20T14:56:14;6.22;;;2.95;;
54121;SDS011;40029;58.708;50.190;2023-12-20T14:58:46;7.68;;;3.15;;
54121;SDS011;40029;58.708;50.190;2023-12-20T15:01:18;6.25;;;2.25;;
54121;SDS011;40029;58.708;50.190;2023-12-20T15:03:52;5.03;;;2.15;;
54121;SDS011;40029;58.708;50.190;2023-12-20T15:06:23;8.45;;;4.22;;
54121;SDS011;40029;58.708;50.190;2023-12-20T15:08:56;12.07;;;5.47;;
54121;SDS011;40029;58.708;50.190;2023-12-20T15:11:28;14.13;;;6.85;;